sensor_id;sensor_type;location;lat;lon;timestamp;noise_LAeq;noise_LA_min;noise_LA_max;noise_LA01;noise_LA95
80580;Laerm;69939;52.402;6.608;2024-03-23T00:55:54;54.65;35.56;67.20;;
80580;Laerm;69939;52.402;6.608;2024-03-23T00:58:21;55.40;36.46;72.31;;
80580;Laerm;69939;52.402;6.608;2024-03-23T01:01:08;55.26;34.35;72.53;;
80580;Laerm;69939;52.402;6.608;2024-03-23T01:03:36;52.54;34.19;70.28;;
80580;Laerm;69939;52.402;6.608;2024-03-23T01:06:05;44.47;33.86;64.39;;
80580;Laerm;69939;52.402;6.608;2024-03-23T01:08:33;59.89;34.38;77.93;;
80580;Laerm;69939;52.402;6.608;2024-03-23T01:11:04;37.09;33.95;45.97;;
80580;Laerm;69939;52.402;6.608;2024-03-23T01:13:33;56.28;35.17;73.89;;
80580;Laerm;69939;52.402;6.608;2024-03-23T01:16:05;43.31;33.97;63.62;;
80580;Laerm;69939;52.402;6.608;2024-03-23T01:18:35;48.54;35.32;66.07;;
80580;Laerm;69939;52.402;6.608;2024-03-23T01:21:17;60.69;34.78;77.70;;
80580;Laerm;69939;52.402;6.608;2024-03-23T01:23:46;51.51;34.20;69.37;;
80580;Laerm;69939;52.402;6.608;2024-03-23T01:26:29;50.36;33.61;66.84;;
80580;Laerm;69939;52.402;6.608;2024-03-23T01:28:57;44.15;33.98;63.86;;
80580;Laerm;69939;52.402;6.608;2024-03-23T01:31:24;44.50;33.93;62.42;;
80580;Laerm;69939;52.402;6.608;2024-03-23T01:33:51;47.90;33.95;64.69;;
80580;Laerm;69939;52.402;6.608;2024-03-23T01:36:21;61.76;34.24;79.64;;
80580;Laerm;69939;52.402;6.608;2024-03-23T01:38:48;58.18;34.19;76.07;;
80580;Laerm;69939;52.402;6.608;2024-03-23T01:41:15;42.25;34.20;65.16;;
80580;Laerm;69939;52.402;6.608;2024-03-23T01:43:46;50.90;34.86;68.11;;
80580;Laerm;69939;52.402;6.608;2024-03-23T01:46:13;44.24;33.87;63.05;;
80580;Laerm;69939;52.402;6.608;2024-03-23T01:48:42;63.78;34.41;83.86;;
80580;Laerm;69939;52.402;6.608;2024-03-23T01:51:12;45.89;34.73;63.31;;
80580;Laerm;69939;52.402;6.608;2024-03-23T01:53:49;59.44;35.63;76.45;;
80580;Laerm;69939;52.402;6.608;2024-03-23T01:56:16;44.89;35.24;62.79;;
80580;Laerm;69939;52.402;6.608;2024-03-23T01:58:52;57.11;34.67;75.86;;
80580;Laerm;69939;52.402;6.608;2024-03-23T02:01:18;44.87;34.53;62.21;;
80580;Laerm;69939;52.402;6.608;2024-03-23T02:03:45;45.44;35.73;61.87;;
80580;Laerm;69939;52.402;6.608;2024-03-23T02:06:12;57.00;34.49;72.26;;
80580;Laerm;69939;52.402;6.608;2024-03-23T02:08:47;62.20;34.78;78.82;;
80580;Laerm;69939;52.402;6.608;2024-03-23T02:11:14;53.94;34.39;70.75;;
80580;Laerm;69939;52.402;6.608;2024-03-23T02:13:40;63.84;35.79;81.66;;
80580;Laerm;69939;52.402;6.608;2024-03-23T02:16:07;55.90;34.81;73.72;;
80580;Laerm;69939;52.402;6.608;2024-03-23T02:18:34;44.23;34.25;62.36;;
80580;Laerm;69939;52.402;6.608;2024-03-23T02:21:04;43.22;33.83;62.82;;
80580;Laerm;69939;52.402;6.608;2024-03-23T02:23:34;43.16;34.54;62.74;;
80580;Laerm;69939;52.402;6.608;2024-03-23T02:26:04;53.65;34.35;71.89;;
80580;Laerm;69939;52.402;6.608;2024-03-23T02:28:30;60.74;35.14;79.80;;
80580;Laerm;69939;52.402;6.608;2024-03-23T02:30:58;52.88;34.57;70.53;;
80580;Laerm;69939;52.402;6.608;2024-03-23T02:33:25;53.35;34.37;71.58;;
80580;Laerm;69939;52.402;6.608;2024-03-23T02:35:56;63.29;34.42;82.29;;
80580;Laerm;69939;52.402;6.608;2024-03-23T02:38:35;60.54;35.71;77.70;;
80580;Laerm;69939;52.402;6.608;2024-03-23T02:41:04;39.82;33.67;60.16;;
80580;Laerm;69939;52.402;6.608;2024-03-23T02:43:34;38.86;33.59;59.10;;
80580;Laerm;69939;52.402;6.608;2024-03-23T02:46:00;53.59;33.47;71.39;;
80580;Laerm;69939;52.402;6.608;2024-03-23T02:48:29;39.55;34.40;56.76;;
80580;Laerm;69939;52.402;6.608;2024-03-23T02:50:56;40.32;34.60;58.59;;
80580;Laerm;69939;52.402;6.608;2024-03-23T02:53:26;55.23;34.81;70.77;;
80580;Laerm;69939;52.402;6.608;2024-03-23T02:55:57;48.68;35.23;68.67;;
80580;Laerm;69939;52.402;6.608;2024-03-23T02:58:24;56.27;34.69;71.04;;
80580;Laerm;69939;52.402;6.608;2024-03-23T03:00:51;39.16;34.88;56.43;;
80580;Laerm;69939;52.402;6.608;2024-03-23T03:03:19;40.01;34.73;56.27;;
80580;Laerm;69939;52.402;6.608;2024-03-23T03:05:45;40.52;34.76;57.50;;
80580;Laerm;69939;52.402;6.608;2024-03-23T03:08:22;41.59;34.79;55.71;;
80580;Laerm;69939;52.402;6.608;2024-03-23T03:10:50;57.45;35.12;73.94;;
80580;Laerm;69939;52.402;6.608;2024-03-23T03:13:17;56.45;34.14;74.53;;
80580;Laerm;69939;52.402;6.608;2024-03-23T03:15:44;55.33;36.05;70.92;;
80580;Laerm;69939;52.402;6.608;2024-03-23T03:18:10;51.91;35.56;67.68;;
80580;Laerm;69939;52.402;6.608;2024-03-23T03:20:38;38.71;34.64;53.54;;
80580;Laerm;69939;52.402;6.608;2024-03-23T03:23:05;55.43;35.39;72.39;;
80580;Laerm;69939;52.402;6.608;2024-03-23T03:25:37;55.48;35.32;73.44;;
80580;Laerm;69939;52.402;6.608;2024-03-23T03:28:07;59.10;37.86;73.25;;
80580;Laerm;69939;52.402;6.608;2024-03-23T03:30:33;45.25;34.25;61.60;;
80580;Laerm;69939;52.402;6.608;2024-03-23T03:33:00;44.91;34.90;58.32;;
80580;Laerm;69939;52.402;6.608;2024-03-23T03:35:26;50.24;34.21;67.03;;
80580;Laerm;69939;52.402;6.608;2024-03-23T03:37:53;53.84;34.14;72.16;;
80580;Laerm;69939;52.402;6.608;2024-03-23T03:40:20;56.88;34.33;73.96;;
80580;Laerm;69939;52.402;6.608;2024-03-23T03:42:49;47.84;34.14;62.81;;
80580;Laerm;69939;52.402;6.608;2024-03-23T03:45:16;59.55;35.40;75.67;;
80580;Laerm;69939;52.402;6.608;2024-03-23T03:47:42;53.81;33.24;71.08;;
80580;Laerm;69939;52.402;6.608;2024-03-23T03:50:11;56.66;33.30;70.57;;
80580;Laerm;69939;52.402;6.608;2024-03-23T03:52:38;47.91;33.70;62.54;;
80580;Laerm;69939;52.402;6.608;2024-03-23T03:55:13;57.76;34.42;73.26;;
80580;Laerm;69939;52.402;6.608;2024-03-23T03:57:50;49.43;33.86;66.55;;
80580;Laerm;69939;52.402;6.608;2024-03-23T04:00:20;49.87;33.48;66.49;;
80580;Laerm;69939;52.402;6.608;2024-03-23T04:02:47;55.28;33.94;70.80;;
80580;Laerm;69939;52.402;6.608;2024-03-23T04:05:13;59.53;33.74;73.40;;
80580;Laerm;69939;52.402;6.608;2024-03-23T04:07:42;56.51;33.75;71.30;;
80580;Laerm;69939;52.402;6.608;2024-03-23T04:10:10;59.75;34.62;73.39;;
80580;Laerm;69939;52.402;6.608;2024-03-23T04:12:38;56.48;34.75;70.22;;
80580;Laerm;69939;52.402;6.608;2024-03-23T04:15:09;55.15;33.92;68.90;;
80580;Laerm;69939;52.402;6.608;2024-03-23T04:17:37;57.46;34.43;70.83;;
80580;Laerm;69939;52.402;6.608;2024-03-23T04:20:05;58.59;37.53;74.76;;
80580;Laerm;69939;52.402;6.608;2024-03-23T04:22:40;58.96;37.74;72.75;;
80580;Laerm;69939;52.402;6.608;2024-03-23T04:25:07;58.00;36.57;70.68;;
80580;Laerm;69939;52.402;6.608;2024-03-23T04:27:36;56.53;35.26;68.33;;
80580;Laerm;69939;52.402;6.608;2024-03-23T04:30:04;61.95;40.24;77.08;;
80580;Laerm;69939;52.402;6.608;2024-03-23T04:32:34;60.23;34.76;76.04;;
80580;Laerm;69939;52.402;6.608;2024-03-23T04:35:03;56.14;35.05;70.32;;
80580;Laerm;69939;52.402;6.608;2024-03-23T04:37:39;53.08;36.38;65.04;;
80580;Laerm;69939;52.402;6.608;2024-03-23T04:40:10;55.69;37.01;68.79;;
80580;Laerm;69939;52.402;6.608;2024-03-23T04:42:37;56.75;37.09;71.90;;
80580;Laerm;69939;52.402;6.608;2024-03-23T04:45:07;57.09;38.09;71.49;;
80580;Laerm;69939;52.402;6.608;2024-03-23T04:47:45;56.59;37.59;72.77;;
80580;Laerm;69939;52.402;6.608;2024-03-23T04:50:13;62.59;38.96;75.42;;
80580;Laerm;69939;52.402;6.608;2024-03-23T04:52:39;57.01;36.89;73.64;;
80580;Laerm;69939;52.402;6.608;2024-03-23T04:55:07;62.05;39.58;78.56;;
80580;Laerm;69939;52.402;6.608;2024-03-23T04:57:33;61.93;38.15;76.00;;
80580;Laerm;69939;52.402;6.608;2024-03-23T05:00:03;61.23;37.17;75.41;;
80580;Laerm;69939;52.402;6.608;2024-03-23T05:02:33;63.80;38.02;80.47;;
80580;Laerm;69939;52.402;6.608;2024-03-23T05:05:03;57.23;36.62;71.83;;
80580;Laerm;69939;52.402;6.608;2024-03-23T05:07:30;51.29;35.56;67.24;;
80580;Laerm;69939;52.402;6.608;2024-03-23T05:09:56;62.61;37.41;77.50;;
80580;Laerm;69939;52.402;6.608;2024-03-23T05:12:23;61.50;39.72;75.22;;
80580;Laerm;69939;52.402;6.608;2024-03-23T05:14:58;60.08;36.86;76.10;;
80580;Laerm;69939;52.402;6.608;2024-03-23T05:17:25;61.21;37.81;73.93;;
80580;Laerm;69939;52.402;6.608;2024-03-23T05:19:51;53.12;37.53;68.86;;
80580;Laerm;69939;52.402;6.608;2024-03-23T05:22:18;56.99;36.39;72.68;;
80580;Laerm;69939;52.402;6.608;2024-03-23T05:24:45;58.04;36.37;75.56;;
80580;Laerm;69939;52.402;6.608;2024-03-23T05:27:12;43.69;36.66;56.04;;
80580;Laerm;69939;52.402;6.608;2024-03-23T05:29:38;61.82;41.32;74.75;;
80580;Laerm;69939;52.402;6.608;2024-03-23T05:32:08;61.20;40.01;72.64;;
80580;Laerm;69939;52.402;6.608;2024-03-23T05:34:34;58.33;38.92;73.72;;
80580;Laerm;69939;52.402;6.608;2024-03-23T05:37:04;61.77;43.63;74.17;;
80580;Laerm;69939;52.402;6.608;2024-03-23T05:39:32;63.10;43.74;73.50;;
80580;Laerm;69939;52.402;6.608;2024-03-23T05:42:09;60.88;37.27;75.08;;
80580;Laerm;69939;52.402;6.608;2024-03-23T05:44:36;60.80;39.58;72.43;;
80580;Laerm;69939;52.402;6.608;2024-03-23T05:47:05;63.87;40.02;78.61;;
80580;Laerm;69939;52.402;6.608;2024-03-23T05:49:34;58.85;38.75;72.31;;
80580;Laerm;69939;52.402;6.608;2024-03-23T05:52:04;58.63;40.86;71.20;;
80580;Laerm;69939;52.402;6.608;2024-03-23T05:54:32;60.69;39.58;73.19;;
80580;Laerm;69939;52.402;6.608;2024-03-23T05:56:59;62.93;39.41;77.72;;
80580;Laerm;69939;52.402;6.608;2024-03-23T05:59:28;59.58;38.04;73.09;;
80580;Laerm;69939;52.402;6.608;2024-03-23T06:01:55;60.63;39.16;76.09;;
80580;Laerm;69939;52.402;6.608;2024-03-23T06:04:22;62.98;38.77;83.29;;
80580;Laerm;69939;52.402;6.608;2024-03-23T06:06:51;62.31;41.18;75.82;;
80580;Laerm;69939;52.402;6.608;2024-03-23T06:09:18;58.27;39.64;70.74;;
80580;Laerm;69939;52.402;6.608;2024-03-23T06:11:57;65.43;40.62;80.99;;
80580;Laerm;69939;52.402;6.608;2024-03-23T06:14:43;59.71;38.30;73.99;;
80580;Laerm;69939;52.402;6.608;2024-03-23T06:17:12;61.85;40.83;72.65;;
80580;Laerm;69939;52.402;6.608;2024-03-23T06:19:41;63.34;40.21;75.44;;
80580;Laerm;69939;52.402;6.608;2024-03-23T06:22:09;61.73;40.48;76.79;;
80580;Laerm;69939;52.402;6.608;2024-03-23T06:24:40;59.75;42.33;71.73;;
80580;Laerm;69939;52.402;6.608;2024-03-23T06:27:09;64.58;43.86;75.55;;
80580;Laerm;69939;52.402;6.608;2024-03-23T06:29:36;63.52;39.55;81.17;;
80580;Laerm;69939;52.402;6.608;2024-03-23T06:32:08;64.30;43.22;74.68;;
80580;Laerm;69939;52.402;6.608;2024-03-23T06:34:36;65.18;42.28;77.25;;
80580;Laerm;69939;52.402;6.608;2024-03-23T06:37:04;61.91;43.27;77.05;;
80580;Laerm;69939;52.402;6.608;2024-03-23T06:39:30;65.66;48.27;75.02;;
80580;Laerm;69939;52.402;6.608;2024-03-23T06:42:01;65.39;44.56;79.03;;
80580;Laerm;69939;52.402;6.608;2024-03-23T06:44:28;65.81;45.38;75.77;;
80580;Laerm;69939;52.402;6.608;2024-03-23T06:46:54;66.94;47.38;80.07;;
80580;Laerm;69939;52.402;6.608;2024-03-23T06:49:32;64.92;42.75;77.75;;
80580;Laerm;69939;52.402;6.608;2024-03-23T06:51:59;65.16;46.38;78.41;;
80580;Laerm;69939;52.402;6.608;2024-03-23T06:54:26;65.60;46.69;80.04;;
80580;Laerm;69939;52.402;6.608;2024-03-23T06:56:52;69.36;49.92;85.19;;
80580;Laerm;69939;52.402;6.608;2024-03-23T06:59:19;66.97;48.14;81.70;;
80580;Laerm;69939;52.402;6.608;2024-03-23T07:01:45;67.55;46.38;82.74;;
80580;Laerm;69939;52.402;6.608;2024-03-23T07:04:12;72.38;53.85;86.53;;
80580;Laerm;69939;52.402;6.608;2024-03-23T07:06:45;71.20;47.24;87.77;;
80580;Laerm;69939;52.402;6.608;2024-03-23T07:09:12;76.04;50.72;89.29;;
80580;Laerm;69939;52.402;6.608;2024-03-23T07:11:38;77.70;56.75;97.02;;
80580;Laerm;69939;52.402;6.608;2024-03-23T07:14:08;75.79;50.12;91.99;;
80580;Laerm;69939;52.402;6.608;2024-03-23T07:16:34;80.16;45.85;98.48;;
80580;Laerm;69939;52.402;6.608;2024-03-23T07:19:09;75.02;52.43;90.52;;
80580;Laerm;69939;52.402;6.608;2024-03-23T07:21:36;71.85;48.59;88.18;;
80580;Laerm;69939;52.402;6.608;2024-03-23T07:24:06;69.96;48.25;82.88;;
80580;Laerm;69939;52.402;6.608;2024-03-23T07:26:35;67.36;45.12;80.69;;
80580;Laerm;69939;52.402;6.608;2024-03-23T07:29:06;73.28;56.30;89.28;;
80580;Laerm;69939;52.402;6.608;2024-03-23T07:31:32;71.79;51.61;89.88;;
80580;Laerm;69939;52.402;6.608;2024-03-23T07:33:59;70.70;45.05;85.53;;
80580;Laerm;69939;52.402;6.608;2024-03-23T07:36:25;74.71;50.53;94.95;;
80580;Laerm;69939;52.402;6.608;2024-03-23T07:39:04;77.68;50.97;92.11;;
80580;Laerm;69939;52.402;6.608;2024-03-23T07:41:30;83.18;50.35;100.62;;
80580;Laerm;69939;52.402;6.608;2024-03-23T07:43:57;79.39;54.77;98.41;;
80580;Laerm;69939;52.402;6.608;2024-03-23T07:46:24;78.71;52.08;93.01;;
80580;Laerm;69939;52.402;6.608;2024-03-23T07:48:51;67.80;52.31;80.56;;
80580;Laerm;69939;52.402;6.608;2024-03-23T07:51:20;71.70;48.96;91.51;;
80580;Laerm;69939;52.402;6.608;2024-03-23T07:53:47;70.49;52.56;85.38;;
80580;Laerm;69939;52.402;6.608;2024-03-23T07:56:17;67.79;48.26;83.55;;
80580;Laerm;69939;52.402;6.608;2024-03-23T07:58:44;65.76;48.07;81.92;;
80580;Laerm;69939;52.402;6.608;2024-03-23T08:01:12;70.07;52.08;84.05;;
80580;Laerm;69939;52.402;6.608;2024-03-23T08:03:40;66.24;49.57;76.36;;
80580;Laerm;69939;52.402;6.608;2024-03-23T08:06:08;67.86;50.90;83.06;;
80580;Laerm;69939;52.402;6.608;2024-03-23T08:08:35;72.06;53.84;89.02;;
80580;Laerm;69939;52.402;6.608;2024-03-23T08:11:07;67.65;51.42;78.12;;
80580;Laerm;69939;52.402;6.608;2024-03-23T08:13:39;67.07;49.82;74.11;;
80580;Laerm;69939;52.402;6.608;2024-03-23T08:16:06;65.85;51.97;73.47;;
80580;Laerm;69939;52.402;6.608;2024-03-23T08:18:37;67.38;50.57;77.01;;
80580;Laerm;69939;52.402;6.608;2024-03-23T08:21:13;71.00;54.09;88.54;;
80580;Laerm;69939;52.402;6.608;2024-03-23T08:23:41;66.67;49.74;78.33;;
80580;Laerm;69939;52.402;6.608;2024-03-23T08:26:11;66.40;49.83;79.24;;
80580;Laerm;69939;52.402;6.608;2024-03-23T08:28:58;65.18;45.47;75.40;;
80580;Laerm;69939;52.402;6.608;2024-03-23T08:31:37;68.33;47.58;83.70;;
80580;Laerm;69939;52.402;6.608;2024-03-23T08:34:04;70.91;47.78;85.69;;
80580;Laerm;69939;52.402;6.608;2024-03-23T08:36:30;66.70;49.01;75.42;;
80580;Laerm;69939;52.402;6.608;2024-03-23T08:38:58;73.24;50.27;91.31;;
80580;Laerm;69939;52.402;6.608;2024-03-23T08:41:24;75.20;52.37;90.72;;
80580;Laerm;69939;52.402;6.608;2024-03-23T08:43:51;68.69;49.98;78.95;;
80580;Laerm;69939;52.402;6.608;2024-03-23T08:46:34;73.59;49.99;89.59;;
80580;Laerm;69939;52.402;6.608;2024-03-23T08:49:03;70.02;47.68;85.99;;
80580;Laerm;69939;52.402;6.608;2024-03-23T08:51:29;71.41;52.27;85.95;;
80580;Laerm;69939;52.402;6.608;2024-03-23T08:53:56;67.20;50.37;77.82;;
80580;Laerm;69939;52.402;6.608;2024-03-23T08:56:23;69.65;52.16;83.22;;
80580;Laerm;69939;52.402;6.608;2024-03-23T08:58:49;68.09;49.97;77.46;;
80580;Laerm;69939;52.402;6.608;2024-03-23T09:01:16;69.54;54.14;81.99;;
80580;Laerm;69939;52.402;6.608;2024-03-23T09:03:45;66.81;49.78;79.07;;
80580;Laerm;69939;52.402;6.608;2024-03-23T09:06:15;67.31;48.32;79.63;;
80580;Laerm;69939;52.402;6.608;2024-03-23T09:08:43;65.62;49.18;75.13;;
80580;Laerm;69939;52.402;6.608;2024-03-23T09:11:13;67.63;52.21;79.19;;
80580;Laerm;69939;52.402;6.608;2024-03-23T09:13:39;66.07;49.85;76.57;;
80580;Laerm;69939;52.402;6.608;2024-03-23T09:16:09;67.10;50.48;78.24;;
80580;Laerm;69939;52.402;6.608;2024-03-23T09:18:37;67.57;52.01;80.52;;
80580;Laerm;69939;52.402;6.608;2024-03-23T09:21:12;67.49;49.86;78.53;;
80580;Laerm;69939;52.402;6.608;2024-03-23T09:23:40;71.02;50.78;82.80;;
80580;Laerm;69939;52.402;6.608;2024-03-23T09:26:06;71.84;53.40;87.68;;
80580;Laerm;69939;52.402;6.608;2024-03-23T09:28:33;73.59;58.21;84.96;;
80580;Laerm;69939;52.402;6.608;2024-03-23T09:31:02;71.73;56.93;83.36;;
80580;Laerm;69939;52.402;6.608;2024-03-23T09:33:29;70.95;54.59;77.49;;
80580;Laerm;69939;52.402;6.608;2024-03-23T09:35:55;69.69;49.81;78.52;;
80580;Laerm;69939;52.402;6.608;2024-03-23T09:38:25;67.51;50.05;79.48;;
80580;Laerm;69939;52.402;6.608;2024-03-23T09:40:53;68.71;51.46;75.87;;
80580;Laerm;69939;52.402;6.608;2024-03-23T09:43:32;68.82;48.60;75.24;;
80580;Laerm;69939;52.402;6.608;2024-03-23T09:45:58;66.04;47.20;74.78;;
80580;Laerm;69939;52.402;6.608;2024-03-23T09:48:24;69.48;48.36;78.83;;
80580;Laerm;69939;52.402;6.608;2024-03-23T09:50:51;67.50;49.74;75.47;;
80580;Laerm;69939;52.402;6.608;2024-03-23T09:53:18;68.74;53.31;78.57;;
80580;Laerm;69939;52.402;6.608;2024-03-23T09:55:55;67.47;50.26;75.55;;
80580;Laerm;69939;52.402;6.608;2024-03-23T09:58:24;65.64;46.62;76.74;;
80580;Laerm;69939;52.402;6.608;2024-03-23T10:00:52;66.91;47.38;76.77;;
80580;Laerm;69939;52.402;6.608;2024-03-23T10:03:29;66.45;45.82;78.57;;
80580;Laerm;69939;52.402;6.608;2024-03-23T10:06:03;67.38;45.80;80.24;;
80580;Laerm;69939;52.402;6.608;2024-03-23T10:08:33;67.52;45.47;78.01;;
80580;Laerm;69939;52.402;6.608;2024-03-23T10:11:24;66.19;48.62;74.67;;
80580;Laerm;69939;52.402;6.608;2024-03-23T10:13:52;68.33;51.48;76.74;;
80580;Laerm;69939;52.402;6.608;2024-03-23T10:16:28;71.05;51.56;89.72;;
80580;Laerm;69939;52.402;6.608;2024-03-23T10:18:54;68.43;46.39;77.96;;
80580;Laerm;69939;52.402;6.608;2024-03-23T10:21:21;71.28;52.09;85.48;;
80580;Laerm;69939;52.402;6.608;2024-03-23T10:23:48;72.43;50.75;87.63;;
80580;Laerm;69939;52.402;6.608;2024-03-23T10:26:21;75.40;56.35;90.22;;
80580;Laerm;69939;52.402;6.608;2024-03-23T10:29:05;78.88;54.07;93.16;;
80580;Laerm;69939;52.402;6.608;2024-03-23T10:31:38;78.15;55.38;96.27;;
80580;Laerm;69939;52.402;6.608;2024-03-23T10:34:07;80.63;56.06;101.27;;
80580;Laerm;69939;52.402;6.608;2024-03-23T10:36:35;89.16;63.63;106.20;;
80580;Laerm;69939;52.402;6.608;2024-03-23T10:39:17;85.06;62.74;101.71;;
80580;Laerm;69939;52.402;6.608;2024-03-23T10:42:00;82.96;54.97;100.57;;
80580;Laerm;69939;52.402;6.608;2024-03-23T10:44:31;73.60;54.93;89.97;;
80580;Laerm;69939;52.402;6.608;2024-03-23T10:47:00;71.10;50.82;84.80;;
80580;Laerm;69939;52.402;6.608;2024-03-23T10:49:32;69.33;51.48;80.22;;
80580;Laerm;69939;52.402;6.608;2024-03-23T10:52:04;73.00;49.59;89.40;;
80580;Laerm;69939;52.402;6.608;2024-03-23T10:54:34;71.87;52.11;85.14;;
80580;Laerm;69939;52.402;6.608;2024-03-23T10:57:06;72.70;52.07;88.05;;
80580;Laerm;69939;52.402;6.608;2024-03-23T10:59:36;74.15;54.46;89.07;;
80580;Laerm;69939;52.402;6.608;2024-03-23T11:02:04;73.28;56.84;86.94;;
80580;Laerm;69939;52.402;6.608;2024-03-23T11:04:32;71.56;49.39;93.39;;
80580;Laerm;69939;52.402;6.608;2024-03-23T11:06:59;75.32;49.50;89.10;;
80580;Laerm;69939;52.402;6.608;2024-03-23T11:09:43;74.07;57.25;90.33;;
80580;Laerm;69939;52.402;6.608;2024-03-23T11:12:38;71.01;51.33;85.85;;
80580;Laerm;69939;52.402;6.608;2024-03-23T11:15:06;77.36;55.01;92.23;;
80580;Laerm;69939;52.402;6.608;2024-03-23T11:17:37;75.66;58.10;90.02;;
80580;Laerm;69939;52.402;6.608;2024-03-23T11:20:08;72.81;54.91;87.62;;
80580;Laerm;69939;52.402;6.608;2024-03-23T11:22:43;77.23;54.88;90.35;;
80580;Laerm;69939;52.402;6.608;2024-03-23T11:25:20;81.34;57.98;97.76;;
80580;Laerm;69939;52.402;6.608;2024-03-23T11:27:48;84.08;61.53;100.01;;
80580;Laerm;69939;52.402;6.608;2024-03-23T11:30:17;74.28;53.87;88.92;;
80580;Laerm;69939;52.402;6.608;2024-03-23T11:32:44;75.08;51.32;91.01;;
80580;Laerm;69939;52.402;6.608;2024-03-23T11:35:24;74.54;55.99;93.60;;
80580;Laerm;69939;52.402;6.608;2024-03-23T11:38:05;75.19;50.67;88.58;;
80580;Laerm;69939;52.402;6.608;2024-03-23T11:40:49;72.86;53.87;86.52;;
80580;Laerm;69939;52.402;6.608;2024-03-23T11:43:18;75.08;54.89;89.80;;
80580;Laerm;69939;52.402;6.608;2024-03-23T11:45:47;78.78;56.70;95.93;;
80580;Laerm;69939;52.402;6.608;2024-03-23T11:48:23;69.67;50.39;84.19;;
80580;Laerm;69939;52.402;6.608;2024-03-23T11:50:57;72.82;55.03;86.18;;
80580;Laerm;69939;52.402;6.608;2024-03-23T11:53:25;69.15;54.83;83.52;;
80580;Laerm;69939;52.402;6.608;2024-03-23T11:56:13;71.26;51.51;86.63;;
80580;Laerm;69939;52.402;6.608;2024-03-23T11:58:40;78.79;58.71;93.02;;
80580;Laerm;69939;52.402;6.608;2024-03-23T12:01:12;72.88;48.53;92.26;;
80580;Laerm;69939;52.402;6.608;2024-03-23T12:03:44;73.48;53.73;88.86;;
80580;Laerm;69939;52.402;6.608;2024-03-23T12:06:10;71.69;52.01;86.05;;
80580;Laerm;69939;52.402;6.608;2024-03-23T12:08:37;72.26;52.56;85.80;;
80580;Laerm;69939;52.402;6.608;2024-03-23T12:11:08;73.43;49.73;88.68;;
80580;Laerm;69939;52.402;6.608;2024-03-23T12:13:35;81.35;58.23;96.86;;
80580;Laerm;69939;52.402;6.608;2024-03-23T12:16:12;84.24;57.50;96.87;;
80580;Laerm;69939;52.402;6.608;2024-03-23T12:18:53;82.98;60.60;98.34;;
80580;Laerm;69939;52.402;6.608;2024-03-23T12:21:19;74.20;55.30;89.16;;
80580;Laerm;69939;52.402;6.608;2024-03-23T12:23:46;70.34;51.22;83.91;;
80580;Laerm;69939;52.402;6.608;2024-03-23T12:26:12;74.53;56.28;94.33;;
80580;Laerm;69939;52.402;6.608;2024-03-23T12:28:41;78.40;52.98;93.42;;
80580;Laerm;69939;52.402;6.608;2024-03-23T12:31:10;69.90;49.50;83.00;;
80580;Laerm;69939;52.402;6.608;2024-03-23T12:33:37;74.31;54.01;92.19;;
80580;Laerm;69939;52.402;6.608;2024-03-23T12:36:07;74.75;54.65;89.95;;
80580;Laerm;69939;52.402;6.608;2024-03-23T12:38:34;78.24;55.52;93.26;;
80580;Laerm;69939;52.402;6.608;2024-03-23T12:41:09;69.99;51.19;79.64;;
80580;Laerm;69939;52.402;6.608;2024-03-23T12:43:36;70.30;51.36;84.66;;
80580;Laerm;69939;52.402;6.608;2024-03-23T12:46:03;74.83;49.70;92.12;;
80580;Laerm;69939;52.402;6.608;2024-03-23T12:48:29;76.64;54.03;93.34;;
80580;Laerm;69939;52.402;6.608;2024-03-23T12:51:05;76.05;54.74;91.76;;
80580;Laerm;69939;52.402;6.608;2024-03-23T12:53:32;69.58;48.70;87.01;;
80580;Laerm;69939;52.402;6.608;2024-03-23T12:56:04;70.91;50.45;86.60;;
80580;Laerm;69939;52.402;6.608;2024-03-23T12:58:37;78.34;48.12;92.69;;
80580;Laerm;69939;52.402;6.608;2024-03-23T13:01:04;73.25;53.00;88.97;;
80580;Laerm;69939;52.402;6.608;2024-03-23T13:03:40;79.81;50.85;95.68;;
80580;Laerm;69939;52.402;6.608;2024-03-23T13:06:09;72.30;54.69;88.18;;
80580;Laerm;69939;52.402;6.608;2024-03-23T13:08:36;79.82;49.53;98.63;;
80580;Laerm;69939;52.402;6.608;2024-03-23T13:11:03;75.47;55.49;88.48;;
80580;Laerm;69939;52.402;6.608;2024-03-23T13:13:30;76.19;49.99;92.48;;
80580;Laerm;69939;52.402;6.608;2024-03-23T13:15:57;77.74;52.22;92.13;;
80580;Laerm;69939;52.402;6.608;2024-03-23T13:18:26;74.65;50.83;89.62;;
80580;Laerm;69939;52.402;6.608;2024-03-23T13:21:11;69.58;49.35;85.57;;
80580;Laerm;69939;52.402;6.608;2024-03-23T13:23:38;74.64;51.71;91.41;;
80580;Laerm;69939;52.402;6.608;2024-03-23T13:26:04;70.60;49.76;82.11;;
80580;Laerm;69939;52.402;6.608;2024-03-23T13:28:41;70.39;52.02;86.68;;
80580;Laerm;69939;52.402;6.608;2024-03-23T13:31:08;69.33;49.36;81.10;;
80580;Laerm;69939;52.402;6.608;2024-03-23T13:33:34;69.36;48.40;85.80;;
80580;Laerm;69939;52.402;6.608;2024-03-23T13:36:03;74.51;52.47;88.05;;
80580;Laerm;69939;52.402;6.608;2024-03-23T13:38:30;70.60;49.70;84.23;;
80580;Laerm;69939;52.402;6.608;2024-03-23T13:40:58;68.19;47.02;81.49;;
80580;Laerm;69939;52.402;6.608;2024-03-23T13:43:36;69.33;46.35;85.19;;
80580;Laerm;69939;52.402;6.608;2024-03-23T13:46:03;68.15;49.36;78.88;;
80580;Laerm;69939;52.402;6.608;2024-03-23T13:48:30;67.72;47.60;76.43;;
80580;Laerm;69939;52.402;6.608;2024-03-23T13:51:00;67.57;48.90;75.52;;
80580;Laerm;69939;52.402;6.608;2024-03-23T13:53:27;70.63;51.34;87.26;;
80580;Laerm;69939;52.402;6.608;2024-03-23T13:55:56;71.95;50.01;90.26;;
80580;Laerm;69939;52.402;6.608;2024-03-23T13:59:23;70.80;50.67;86.66;;
80580;Laerm;69939;52.402;6.608;2024-03-23T14:02:19;72.30;54.18;88.10;;
80580;Laerm;69939;52.402;6.608;2024-03-23T14:04:46;82.26;48.32;100.66;;
80580;Laerm;69939;52.402;6.608;2024-03-23T14:07:12;80.22;56.84;97.16;;
80580;Laerm;69939;52.402;6.608;2024-03-23T14:09:38;79.80;53.14;96.04;;
80580;Laerm;69939;52.402;6.608;2024-03-23T14:12:08;81.22;58.69;93.73;;
80580;Laerm;69939;52.402;6.608;2024-03-23T14:14:35;78.95;54.98;94.65;;
80580;Laerm;69939;52.402;6.608;2024-03-23T14:17:04;77.61;54.61;92.39;;
80580;Laerm;69939;52.402;6.608;2024-03-23T14:19:42;71.50;50.59;88.64;;
80580;Laerm;69939;52.402;6.608;2024-03-23T14:22:09;74.91;51.84;89.17;;
80580;Laerm;69939;52.402;6.608;2024-03-23T14:24:35;74.97;51.54;91.71;;
80580;Laerm;69939;52.402;6.608;2024-03-23T14:27:05;77.58;51.66;93.26;;
80580;Laerm;69939;52.402;6.608;2024-03-23T14:29:34;78.25;52.63;94.09;;
80580;Laerm;69939;52.402;6.608;2024-03-23T14:32:06;78.67;59.43;90.17;;
80580;Laerm;69939;52.402;6.608;2024-03-23T14:34:32;76.98;54.51;93.52;;
80580;Laerm;69939;52.402;6.608;2024-03-23T14:37:04;78.01;53.15;93.63;;
80580;Laerm;69939;52.402;6.608;2024-03-23T14:39:39;78.41;52.39;94.70;;
80580;Laerm;69939;52.402;6.608;2024-03-23T14:42:08;80.43;54.09;95.66;;
80580;Laerm;69939;52.402;6.608;2024-03-23T14:44:34;74.09;50.26;93.85;;
80580;Laerm;69939;52.402;6.608;2024-03-23T14:47:03;77.62;60.20;92.34;;
80580;Laerm;69939;52.402;6.608;2024-03-23T14:49:30;71.78;52.30;86.47;;
80580;Laerm;69939;52.402;6.608;2024-03-23T14:51:59;81.91;54.10;99.68;;
80580;Laerm;69939;52.402;6.608;2024-03-23T14:54:26;82.12;53.94;98.32;;